Time;durP1;ratioP1;P1;durP2;ratioP2;P2;SDS_P1;SDS_P2;PMS_P1;PMS_P2;Temp;Humidity;BMP_temperature;BMP_pressure;BME280_temperature;BME280_humidity;BME280_pressure;Samples;Min_cycle;Max_cycle;Signal;HPM_P1;HPM_P2
2022/10/31 00:02:08;;;;;;;16.73;8.73;;;12.90;99.90;;;;;;5053754;28;20120;-78
2022/10/31 00:04:33;;;;;;;16.60;8.97;;;12.80;99.90;;;;;;5053521;28;20043;-77
2022/10/31 00:06:59;;;;;;;17.85;8.25;;;12.70;99.90;;;;;;5053140;28;20288;-77
2022/10/31 00:09:25;;;;;;;17.02;8.18;;;12.70;99.90;;;;;;5052583;28;20048;-77
2022/10/31 00:11:50;;;;;;;14.15;8.52;;;12.50;99.90;;;;;;5053318;28;20437;-77
2022/10/31 00:14:16;;;;;;;14.13;8.55;;;12.40;99.90;;;;;;5070278;28;21126;-78
2022/10/31 00:16:42;;;;;;;20.60;9.52;;;12.40;99.90;;;;;;5020061;28;20039;-78
2022/10/31 00:19:08;;;;;;;22.07;9.30;;;12.40;99.90;;;;;;5053183;28;20047;-78
2022/10/31 00:21:35;;;;;;;18.50;9.32;;;12.30;99.90;;;;;;5068789;28;20064;-78
2022/10/31 00:24:00;;;;;;;;;;;12.30;99.90;;;;;;5052672;28;20044;-78
2022/10/31 00:26:28;;;;;;;18.75;9.38;;;12.20;99.90;;;;;;5066427;28;20403;-78
2022/10/31 00:28:54;;;;;;;17.55;9.60;;;12.20;99.90;;;;;;5069757;28;20044;-78
2022/10/31 00:31:19;;;;;;;28.50;9.30;;;12.20;99.90;;;;;;5052851;28;20128;-78
2022/10/31 00:33:45;;;;;;;20.92;10.75;;;12.10;99.90;;;;;;5052566;28;20033;-78
2022/10/31 00:36:16;;;;;;;24.73;10.68;;;12.10;99.90;;;;;;5052860;28;20067;-77
2022/10/31 00:38:42;;;;;;;21.40;11.20;;;12.10;99.90;;;;;;5052306;28;20051;-78
2022/10/31 00:41:13;;;;;;;16.55;9.95;;;12.10;99.90;;;;;;5069455;28;20036;-78
2022/10/31 00:43:38;;;;;;;22.60;11.52;;;12.00;99.90;;;;;;5068826;28;20032;-77
2022/10/31 00:46:04;;;;;;;27.53;11.33;;;12.00;99.90;;;;;;5053195;28;20132;-78
2022/10/31 00:48:30;;;;;;;22.45;11.52;;;12.00;99.90;;;;;;5068667;28;20283;-78
2022/10/31 00:50:56;;;;;;;17.58;10.35;;;12.00;99.90;;;;;;5069105;28;20123;-77
2022/10/31 00:53:22;;;;;;;20.58;10.68;;;12.00;99.90;;;;;;5069483;28;20121;-77
2022/10/31 00:55:48;;;;;;;18.55;10.38;;;11.90;99.90;;;;;;5051946;28;20136;-78
2022/10/31 00:58:14;;;;;;;18.48;10.07;;;11.90;99.90;;;;;;5069083;28;20036;-77
2022/10/31 01:00:39;;;;;;;19.50;10.57;;;11.90;99.90;;;;;;5069278;28;20097;-77
2022/10/31 01:03:05;;;;;;;23.00;10.82;;;11.90;99.90;;;;;;5069406;28;20045;-79
2022/10/31 01:05:31;;;;;;;28.00;12.43;;;11.90;99.90;;;;;;5068832;28;20041;-78
2022/10/31 01:07:56;;;;;;;21.88;11.35;;;12.00;99.90;;;;;;5069067;28;20048;-78
2022/10/31 01:10:23;;;;;;;24.33;12.65;;;11.90;99.90;;;;;;5052430;28;20036;-78
2022/10/31 01:12:49;;;;;;;24.25;11.73;;;11.90;99.90;;;;;;5068463;28;20048;-78
2022/10/31 01:15:22;;;;;;;24.85;11.43;;;11.90;99.90;;;;;;5052386;28;20033;-78
2022/10/31 01:17:48;;;;;;;21.50;11.32;;;11.90;99.90;;;;;;5051779;28;20077;-78
2022/10/31 01:20:15;;;;;;;22.05;12.00;;;12.00;99.90;;;;;;5052316;28;20124;-78
2022/10/31 01:22:41;;;;;;;23.52;11.82;;;12.00;99.90;;;;;;5068928;28;20158;-79
2022/10/31 01:25:08;;;;;;;25.30;11.60;;;12.00;99.90;;;;;;5069096;28;20058;-78
2022/10/31 01:27:33;;;;;;;22.02;10.82;;;12.00;99.90;;;;;;5052044;28;20515;-78
2022/10/31 01:29:59;;;;;;;20.83;10.67;;;12.00;99.90;;;;;;5069052;28;20036;-78
2022/10/31 01:32:25;;;;;;;19.75;9.88;;;12.00;99.90;;;;;;5052549;28;20094;-78
2022/10/31 01:34:50;;;;;;;21.02;10.57;;;12.00;99.90;;;;;;5051712;28;20032;-78
2022/10/31 01:37:16;;;;;;;23.13;11.17;;;11.90;99.90;;;;;;5068814;28;20036;-78
2022/10/31 01:39:42;;;;;;;25.83;10.30;;;11.90;99.90;;;;;;5068302;28;20301;-78
2022/10/31 01:42:15;;;;;;;27.08;12.02;;;11.80;99.90;;;;;;5034787;28;20453;-78
2022/10/31 01:44:41;;;;;;;19.30;10.82;;;11.90;99.90;;;;;;5052126;28;20486;-78
2022/10/31 01:47:19;;;;;;;19.97;10.37;;;11.90;99.90;;;;;;5068728;28;20127;-79
2022/10/31 01:49:58;;;;;;;19.08;10.55;;;11.90;99.90;;;;;;5065783;28;20032;-78
2022/10/31 01:52:30;;;;;;;26.67;11.82;;;11.80;99.90;;;;;;5082103;28;20137;-79
2022/10/31 01:55:26;;;;;;;18.90;10.95;;;11.80;99.90;;;;;;5067403;28;20033;-79
2022/10/31 01:57:55;;;;;;;23.92;11.13;;;11.80;99.90;;;;;;5050004;28;20544;-78
2022/10/31 02:00:21;;;;;;;24.67;11.40;;;11.80;99.90;;;;;;5051940;28;20044;-78
2022/10/31 02:02:49;;;;;;;19.38;10.93;;;11.80;99.90;;;;;;5035177;28;20487;-78
2022/10/31 02:05:19;;;;;;;20.77;11.43;;;11.70;99.90;;;;;;5051628;28;20114;-78
2022/10/31 02:08:09;;;;;;;21.70;10.63;;;11.70;99.90;;;;;;5051782;28;20439;-78
2022/10/31 02:10:37;;;;;;;22.48;11.68;;;11.80;99.90;;;;;;5071974;28;20036;-78
2022/10/31 02:13:05;;;;;;;20.17;10.27;;;11.80;99.90;;;;;;5071835;28;20105;-78
2022/10/31 02:15:33;;;;;;;20.27;10.77;;;11.70;99.90;;;;;;5072111;28;20113;-78
2022/10/31 02:17:59;;;;;;;24.50;11.63;;;11.80;99.90;;;;;;5054961;28;20040;-78
2022/10/31 02:20:29;;;;;;;;;;;11.70;99.90;;;;;;5055691;28;20044;-78
2022/10/31 02:23:27;;;;;;;21.40;11.88;;;11.70;99.90;;;;;;5069480;28;20295;-78
2022/10/31 02:26:35;;;;;;;23.20;10.48;;;11.60;99.90;;;;;;5071863;28;20032;-79
2022/10/31 02:29:01;;;;;;;23.70;10.82;;;11.60;99.90;;;;;;5070789;28;21365;-78
2022/10/31 02:31:42;;;;;;;20.67;11.53;;;11.60;99.90;;;;;;5072182;28;20137;-78
2022/10/31 02:34:25;;;;;;;22.23;10.65;;;11.60;99.90;;;;;;5071342;28;20066;-78
2022/10/31 02:37:06;;;;;;;21.90;10.90;;;11.50;99.90;;;;;;5071716;28;20040;-78
2022/10/31 02:39:38;;;;;;;23.75;10.38;;;11.50;99.90;;;;;;5071415;28;20054;-79
2022/10/31 02:42:09;;;;;;;20.23;11.05;;;11.50;99.90;;;;;;5069873;28;20412;-78
2022/10/31 02:44:48;;;;;;;22.02;11.55;;;11.50;99.90;;;;;;5055124;28;20123;-78
2022/10/31 02:47:27;;;;;;;19.30;11.05;;;11.50;99.90;;;;;;5070519;28;20101;-78
2022/10/31 02:50:05;;;;;;;21.75;10.80;;;11.40;99.90;;;;;;5054898;28;20056;-78
2022/10/31 02:52:33;;;;;;;21.30;10.93;;;11.40;99.90;;;;;;5072081;28;20510;-78
2022/10/31 02:55:11;;;;;;;22.58;11.20;;;11.40;99.90;;;;;;5055073;28;20205;-78
2022/10/31 02:57:38;;;;;;;25.42;12.18;;;11.40;99.90;;;;;;5071893;28;20465;-78
2022/10/31 03:00:07;;;;;;;24.15;11.25;;;11.40;99.90;;;;;;5055026;28;20086;-78
2022/10/31 03:02:42;;;;;;;20.65;10.65;;;11.40;99.90;;;;;;5054488;28;20032;-78
2022/10/31 03:05:07;;;;;;;24.48;11.63;;;11.40;99.90;;;;;;5069795;28;20051;-78
2022/10/31 03:07:57;;;;;;;27.97;11.97;;;11.30;99.90;;;;;;5054615;28;20036;-79
2022/10/31 03:10:36;;;;;;;29.27;13.52;;;11.30;99.90;;;;;;5071111;28;20174;-77
2022/10/31 03:13:33;;;;;;;22.92;12.05;;;11.30;99.90;;;;;;5070065;28;20131;-78
2022/10/31 03:16:14;;;;;;;25.73;11.70;;;11.30;99.90;;;;;;5070798;28;20036;-77
2022/10/31 03:18:53;;;;;;;23.85;11.63;;;11.30;99.90;;;;;;5070906;28;20076;-78
2022/10/31 03:21:42;;;;;;;25.23;12.43;;;11.30;99.90;;;;;;5069597;28;20057;-78
2022/10/31 03:24:10;;;;;;;22.35;11.70;;;11.30;99.90;;;;;;5053857;28;20123;-78
2022/10/31 03:26:39;;;;;;;24.98;12.13;;;11.20;99.90;;;;;;5070849;28;20093;-78
2022/10/31 03:29:11;;;;;;;25.02;11.10;;;11.20;99.90;;;;;;5053905;28;20511;-78
2022/10/31 03:31:43;;;;;;;20.23;11.50;;;11.20;99.90;;;;;;5071090;28;20533;-79
2022/10/31 03:34:12;;;;;;;25.48;12.38;;;11.20;99.90;;;;;;5053618;28;20047;-78
2022/10/31 03:36:39;;;;;;;28.08;13.00;;;11.20;99.90;;;;;;5070606;28;20123;-78
2022/10/31 03:39:09;;;;;;;23.30;11.50;;;11.20;99.90;;;;;;5067774;28;20041;-78
2022/10/31 03:41:41;;;;;;;24.10;11.65;;;11.10;99.90;;;;;;5070469;28;20115;-77
2022/10/31 03:44:12;;;;;;;24.02;11.20;;;11.10;99.90;;;;;;5070427;28;20040;-77
2022/10/31 03:46:38;;;;;;;21.23;11.10;;;11.10;99.90;;;;;;5070407;28;20036;-77
2022/10/31 03:49:04;;;;;;;;;;;11.10;99.90;;;;;;5053791;28;20033;-77
2022/10/31 03:51:53;;;;;;;20.02;10.05;;;11.00;99.90;;;;;;5070426;28;19927;-78
2022/10/31 03:54:46;;;;;;;20.13;11.57;;;11.00;99.90;;;;;;5070376;28;20043;-77
2022/10/31 03:57:18;;;;;;;23.75;11.60;;;11.00;99.90;;;;;;5053288;28;20040;-78
2022/10/31 03:59:58;;;;;;;26.40;12.35;;;11.00;99.90;;;;;;5052446;28;20044;-77
2022/10/31 04:02:29;;;;;;;22.00;11.02;;;11.00;99.90;;;;;;5069145;28;20040;-77
2022/10/31 04:04:56;;;;;;;25.80;12.32;;;11.00;99.90;;;;;;5068675;28;20047;-77
2022/10/31 04:07:26;;;;;;;23.35;11.30;;;11.00;99.90;;;;;;5052754;28;20504;-78
2022/10/31 04:09:53;;;;;;;22.48;11.20;;;11.00;99.90;;;;;;5069174;28;20079;-78
2022/10/31 04:12:20;;;;;;;25.98;12.35;;;10.90;99.90;;;;;;5053145;28;20048;-78
2022/10/31 04:14:48;;;;;;;22.10;11.38;;;10.90;99.90;;;;;;5070048;28;20044;-78
2022/10/31 04:17:17;;;;;;;27.15;12.65;;;10.90;99.90;;;;;;5053205;28;20519;-78
2022/10/31 04:19:43;;;;;;;26.42;12.35;;;10.90;99.90;;;;;;5070105;28;20369;-78
2022/10/31 04:22:09;;;;;;;27.35;11.90;;;10.80;99.90;;;;;;5052906;28;20059;-78
2022/10/31 04:24:37;;;;;;;22.33;11.40;;;10.90;99.90;;;;;;5069761;28;20047;-78
2022/10/31 04:27:03;;;;;;;22.70;11.70;;;10.90;99.90;;;;;;5069141;28;20036;-78
2022/10/31 04:29:28;;;;;;;22.08;10.73;;;10.90;99.90;;;;;;5052947;28;20046;-78
2022/10/31 04:31:54;;;;;;;20.88;11.00;;;10.80;99.90;;;;;;5052175;28;20081;-78
2022/10/31 04:34:19;;;;;;;24.90;12.17;;;10.80;99.90;;;;;;5052381;28;20506;-78
2022/10/31 04:36:45;;;;;;;19.23;10.73;;;10.80;99.90;;;;;;5052892;28;20344;-78
2022/10/31 04:39:11;;;;;;;26.92;11.18;;;10.70;99.90;;;;;;5069174;28;20404;-78
2022/10/31 04:41:36;;;;;;;25.57;11.70;;;10.70;99.90;;;;;;5019577;28;20510;-78
2022/10/31 04:44:02;;;;;;;21.73;11.73;;;10.70;99.90;;;;;;5069264;28;20048;-78
2022/10/31 04:46:28;;;;;;;19.67;10.65;;;10.70;99.90;;;;;;5052573;28;20286;-79
2022/10/31 04:48:53;;;;;;;24.87;11.03;;;10.60;99.90;;;;;;5034504;28;20037;-78
2022/10/31 04:51:22;;;;;;;22.47;11.50;;;10.60;99.90;;;;;;5052268;28;20303;-78
2022/10/31 04:53:48;;;;;;;21.30;11.20;;;10.60;99.90;;;;;;5035896;28;20040;-78
2022/10/31 04:56:14;;;;;;;27.05;12.90;;;10.60;99.90;;;;;;5036018;28;20089;-78
2022/10/31 04:58:39;;;;;;;25.87;12.80;;;10.60;99.90;;;;;;5069543;28;20582;-78
2022/10/31 05:01:05;;;;;;;22.20;11.93;;;10.60;99.90;;;;;;5052014;28;20290;-77
2022/10/31 05:03:31;;;;;;;21.87;11.40;;;10.60;99.90;;;;;;5036103;28;20301;-78
2022/10/31 05:05:57;;;;;;;20.85;12.25;;;10.60;99.90;;;;;;5069248;28;20037;-77
2022/10/31 05:08:22;;;;;;;21.63;11.43;;;10.60;99.90;;;;;;5068532;28;20044;-77
2022/10/31 05:10:48;;;;;;;29.83;13.37;;;10.60;99.90;;;;;;5069131;28;20467;-78
2022/10/31 05:13:15;;;;;;;21.97;11.73;;;11.20;99.90;;;;;;5052081;28;20290;-77
2022/10/31 05:15:41;;;;;;;24.50;11.90;;;10.50;99.90;;;;;;5052263;28;20040;-77
2022/10/31 05:18:06;;;;;;;21.83;11.98;;;10.50;99.90;;;;;;5051626;28;20036;-78
2022/10/31 05:20:32;;;;;;;22.70;12.33;;;10.50;99.90;;;;;;5052468;28;20468;-78
2022/10/31 05:22:58;;;;;;;22.75;13.63;;;10.50;99.90;;;;;;5052292;28;20045;-78
2022/10/31 05:25:26;;;;;;;27.02;13.82;;;10.60;99.90;;;;;;5068730;28;20036;-80
2022/10/31 05:27:53;;;;;;;24.65;12.88;;;10.50;99.90;;;;;;5067538;28;20401;-79
2022/10/31 05:30:25;;;;;;;25.83;14.00;;;10.50;99.90;;;;;;5068922;28;20040;-79
2022/10/31 05:32:51;;;;;;;27.23;13.85;;;10.40;99.90;;;;;;5068975;28;20029;-79
2022/10/31 05:35:22;;;;;;;29.50;14.75;;;10.50;99.90;;;;;;5051769;28;20076;-79
2022/10/31 05:37:48;;;;;;;25.77;14.35;;;10.40;99.90;;;;;;5069211;28;20063;-79
2022/10/31 05:40:16;;;;;;;28.40;13.85;;;10.40;99.90;;;;;;5068620;28;20049;-79
2022/10/31 05:42:43;;;;;;;23.65;13.15;;;10.40;99.90;;;;;;5070351;28;20068;-79
2022/10/31 05:45:12;;;;;;;26.10;13.27;;;10.40;99.90;;;;;;5071916;28;20119;-80
2022/10/31 05:47:38;;;;;;;23.35;13.95;;;10.40;99.90;;;;;;5056047;28;20094;-76
2022/10/31 05:50:04;;;;;;;24.33;13.57;;;10.40;99.90;;;;;;5039607;28;20067;-75
2022/10/31 05:52:30;;;;;;;26.08;13.82;;;10.40;99.90;;;;;;5056105;28;20491;-75
2022/10/31 05:54:56;;;;;;;25.95;14.75;;;10.30;99.90;;;;;;5056335;28;20040;-75
2022/10/31 05:57:21;;;;;;;28.90;14.30;;;10.30;99.90;;;;;;5073186;28;20036;-75
2022/10/31 05:59:47;;;;;;;25.37;13.47;;;10.30;99.90;;;;;;5073106;28;20298;-76
2022/10/31 06:02:13;;;;;;;23.40;12.60;;;10.30;99.90;;;;;;5072305;28;20289;-75
2022/10/31 06:04:38;;;;;;;26.85;13.60;;;10.30;99.90;;;;;;5072726;28;20583;-76
2022/10/31 06:07:04;;;;;;;26.30;14.00;;;10.30;99.90;;;;;;5056263;28;20364;-75
2022/10/31 06:09:30;;;;;;;23.37;13.07;;;10.30;99.90;;;;;;5072433;28;20033;-75
2022/10/31 06:11:55;;;;;;;26.65;13.73;;;10.30;99.90;;;;;;5055927;28;20131;-75
2022/10/31 06:14:21;;;;;;;29.80;13.23;;;10.20;99.90;;;;;;5055892;28;20446;-75
2022/10/31 06:16:47;;;;;;;23.90;12.93;;;10.30;99.90;;;;;;5072929;28;20032;-75
2022/10/31 06:19:12;;;;;;;20.77;12.57;;;10.10;99.90;;;;;;5072033;28;20287;-75
2022/10/31 06:21:38;;;;;;;23.67;13.90;;;10.20;99.90;;;;;;5072358;28;20401;-75
2022/10/31 06:24:04;;;;;;;21.40;12.25;;;10.20;99.90;;;;;;5072408;28;20454;-76
2022/10/31 06:26:30;;;;;;;22.13;13.18;;;10.20;99.90;;;;;;5071941;28;20048;-75
2022/10/31 06:28:55;;;;;;;25.53;14.13;;;10.20;99.90;;;;;;5072386;28;20437;-75
2022/10/31 06:31:24;;;;;;;25.10;14.60;;;10.20;99.90;;;;;;5055800;28;20485;-75
2022/10/31 06:33:50;;;;;;;23.80;13.47;;;10.10;99.90;;;;;;5055676;28;20043;-75
2022/10/31 06:36:15;;;;;;;24.33;13.20;;;10.20;99.90;;;;;;5071941;28;20640;-76
2022/10/31 06:38:41;;;;;;;25.03;14.00;;;10.20;99.90;;;;;;5072094;28;20484;-75
2022/10/31 06:41:06;;;;;;;27.33;15.30;;;10.20;99.90;;;;;;5021681;28;20052;-75
2022/10/31 06:43:33;;;;;;;28.87;13.83;;;10.20;99.90;;;;;;5072081;28;20278;-75
2022/10/31 06:46:03;;;;;;;24.58;14.50;;;10.20;99.90;;;;;;5072414;28;20484;-75
2022/10/31 06:48:28;;;;;;;23.85;14.35;;;10.30;99.90;;;;;;5071730;28;20508;-75
2022/10/31 06:50:58;;;;;;;25.20;13.40;;;10.20;99.90;;;;;;5072039;28;20127;-75
2022/10/31 06:53:24;;;;;;;23.80;14.23;;;10.20;99.90;;;;;;5071559;28;20611;-75
2022/10/31 06:55:49;;;;;;;25.30;14.80;;;10.30;99.90;;;;;;5055213;28;20052;-75
2022/10/31 06:58:15;;;;;;;22.17;12.80;;;10.30;99.90;;;;;;5071773;28;20049;-75
2022/10/31 07:00:41;;;;;;;25.37;14.33;;;10.30;99.90;;;;;;5071974;28;20044;-75
2022/10/31 07:03:10;;;;;;;28.63;15.48;;;10.40;99.90;;;;;;5072349;28;20040;-75
2022/10/31 07:05:36;;;;;;;22.98;13.68;;;10.40;99.90;;;;;;5071301;28;20041;-75
2022/10/31 07:08:08;;;;;;;22.43;13.03;;;10.40;99.90;;;;;;5071947;28;20033;-74
2022/10/31 07:10:35;;;;;;;25.05;14.60;;;10.50;99.90;;;;;;5071440;28;20655;-74
2022/10/31 07:13:03;;;;;;;27.80;14.32;;;10.50;99.90;;;;;;5071353;28;20056;-74
2022/10/31 07:15:32;;;;;;;29.45;14.82;;;10.50;99.90;;;;;;5069081;28;20047;-74
2022/10/31 07:18:02;;;;;;;26.55;13.52;;;10.50;99.90;;;;;;5071640;28;20040;-75
2022/10/31 07:20:28;;;;;;;29.48;14.48;;;10.50;99.90;;;;;;5052232;28;20128;-75
2022/10/31 07:22:54;;;;;;;25.08;14.57;;;10.60;99.90;;;;;;5054690;28;20116;-75
2022/10/31 07:25:20;;;;;;;27.30;14.70;;;10.60;99.90;;;;;;5070901;28;20040;-75
2022/10/31 07:27:46;;;;;;;23.40;14.48;;;10.70;99.90;;;;;;5071141;28;20037;-75
2022/10/31 07:30:13;;;;;;;24.77;14.30;;;10.80;99.90;;;;;;5051759;28;20127;-75
2022/10/31 07:32:43;;;;;;;22.83;13.40;;;11.10;99.90;;;;;;5070787;28;20491;-75
2022/10/31 07:35:12;;;;;;;21.60;12.30;;;11.40;99.90;;;;;;5070938;28;20546;-74
2022/10/31 07:37:38;;;;;;;20.63;11.93;;;11.90;99.90;;;;;;5051180;28;20055;-74
2022/10/31 07:40:05;;;;;;;16.70;11.10;;;12.40;99.90;;;;;;5071016;28;20052;-75
2022/10/31 07:42:43;;;;;;;15.73;10.88;;;12.90;99.90;;;;;;5037542;28;20043;-75
2022/10/31 07:45:11;;;;;;;16.17;10.80;;;13.60;99.90;;;;;;5070927;28;20130;-75
2022/10/31 07:47:44;;;;;;;14.90;10.00;;;14.30;99.90;;;;;;5053901;28;20377;-75
2022/10/31 07:50:12;;;;;;;14.40;9.63;;;14.70;99.90;;;;;;5070385;28;20423;-75
2022/10/31 07:52:38;;;;;;;16.52;10.15;;;15.20;99.90;;;;;;5070218;28;20047;-76
2022/10/31 07:55:04;;;;;;;13.68;9.32;;;15.50;99.90;;;;;;5037397;28;20045;-76
2022/10/31 07:57:30;;;;;;;;;;;15.90;99.90;;;;;;5054771;28;20557;-75
2022/10/31 07:59:56;;;;;;;11.48;8.20;;;16.20;99.90;;;;;;5070866;28;19995;-76
2022/10/31 08:02:21;;;;;;;14.02;9.27;;;16.70;99.90;;;;;;5053604;28;20117;-76
2022/10/31 08:04:47;;;;;;;10.07;7.75;;;16.90;99.90;;;;;;5070364;28;20076;-76
2022/10/31 08:07:13;;;;;;;11.88;8.35;;;17.40;99.90;;;;;;5053879;28;20492;-76
2022/10/31 08:09:39;;;;;;;12.05;8.30;;;17.60;99.90;;;;;;5053304;28;20435;-76
2022/10/31 08:12:04;;;;;;;12.00;8.40;;;18.10;99.90;;;;;;5053499;28;20480;-76
2022/10/31 08:14:30;;;;;;;9.50;8.32;;;18.40;99.90;;;;;;5053543;28;20526;-76
2022/10/31 08:16:56;;;;;;;13.18;8.35;;;18.60;99.90;;;;;;5053795;28;20028;-76
2022/10/31 08:19:22;;;;;;;9.32;7.95;;;18.80;99.90;;;;;;5070085;28;20044;-76
2022/10/31 08:21:52;;;;;;;10.35;7.75;;;18.90;99.90;;;;;;5053483;28;20028;-76
2022/10/31 08:24:18;;;;;;;8.43;7.47;;;19.10;99.90;;;;;;5070178;28;20036;-74
2022/10/31 08:26:44;;;;;;;10.77;7.68;;;19.10;99.90;;;;;;5069727;28;20079;-74
2022/10/31 08:29:10;;;;;;;11.65;8.18;;;18.90;99.90;;;;;;5070161;28;20087;-75
2022/10/31 08:31:36;;;;;;;11.82;7.78;;;18.60;99.90;;;;;;5050521;28;20385;-75
2022/10/31 08:34:02;;;;;;;10.50;8.40;;;18.30;99.90;;;;;;5070326;28;20072;-75
2022/10/31 08:36:28;;;;;;;;;;;18.20;99.90;;;;;;5070284;28;20037;-75
2022/10/31 08:38:54;;;;;;;8.93;7.63;;;18.30;99.90;;;;;;5070145;28;19964;-74
2022/10/31 08:41:20;;;;;;;;;;;18.20;99.90;;;;;;5053921;28;20036;-75
2022/10/31 08:43:46;;;;;;;10.93;7.70;;;18.30;99.90;;;;;;5069643;28;19920;-75
2022/10/31 08:46:11;;;;;;;11.48;7.78;;;18.50;99.90;;;;;;5069900;28;20032;-75
2022/10/31 08:48:37;;;;;;;9.02;6.97;;;18.90;99.90;;;;;;5018512;28;20068;-75
2022/10/31 08:51:03;;;;;;;9.15;6.80;;;19.20;99.90;;;;;;5069868;28;20146;-74
2022/10/31 08:53:29;;;;;;;10.25;7.03;;;19.40;99.90;;;;;;5069458;28;20033;-75
2022/10/31 08:55:56;;;;;;;9.15;7.50;;;19.50;99.90;;;;;;5069745;28;20029;-74
2022/10/31 08:58:23;;;;;;;9.02;7.85;;;19.30;99.90;;;;;;5053388;28;20036;-74
2022/10/31 09:00:51;;;;;;;9.30;7.20;;;19.10;99.90;;;;;;5069252;28;20436;-75
2022/10/31 09:03:18;;;;;;;8.32;7.20;;;19.20;99.90;;;;;;5069642;28;20119;-74
2022/10/31 09:05:45;;;;;;;8.57;7.18;;;19.40;99.90;;;;;;5069292;28;20150;-75
2022/10/31 09:08:11;;;;;;;9.63;6.95;;;19.30;99.90;;;;;;5069443;28;20048;-74
2022/10/31 09:10:38;;;;;;;9.27;7.03;;;19.30;99.90;;;;;;5052400;28;20086;-74
2022/10/31 09:13:11;;;;;;;8.75;6.85;;;19.70;99.90;;;;;;5069369;28;20186;-75
2022/10/31 09:15:39;;;;;;;10.02;6.68;;;19.90;99.90;;;;;;5052556;28;20480;-75
2022/10/31 09:18:06;;;;;;;9.07;6.88;;;20.00;99.90;;;;;;5069120;28;20380;-75
2022/10/31 09:20:33;;;;;;;9.27;6.72;;;19.90;99.90;;;;;;5052462;28;20138;-75
2022/10/31 09:23:04;;;;;;;7.43;6.13;;;20.20;99.90;;;;;;5069242;28;20169;-75
2022/10/31 09:25:30;;;;;;;8.40;6.88;;;20.60;99.90;;;;;;5069746;28;20518;-75
2022/10/31 09:28:00;;;;;;;8.68;6.72;;;20.40;99.90;;;;;;5052254;28;20119;-75
2022/10/31 09:30:28;;;;;;;9.32;6.47;;;20.60;99.90;;;;;;5034308;28;20048;-75
2022/10/31 09:33:02;;;;;;;7.40;6.20;;;20.80;99.90;;;;;;5069045;28;21036;-75
2022/10/31 09:35:28;;;;;;;8.23;6.28;;;21.40;99.90;;;;;;5052584;28;20039;-75
2022/10/31 09:37:59;;;;;;;10.45;5.70;;;21.60;99.90;;;;;;5052092;28;20051;-76
2022/10/31 09:40:35;;;;;;;8.15;6.38;;;21.90;99.90;;;;;;5052920;28;20055;-76
2022/10/31 09:43:23;;;;;;;8.40;6.30;;;21.80;99.90;;;;;;5069404;28;20040;-75
2022/10/31 09:46:17;;;;;;;8.85;6.32;;;21.90;99.90;;;;;;5067365;28;20089;-75
2022/10/31 09:49:01;;;;;;;9.23;6.00;;;21.90;99.90;;;;;;5068495;28;20124;-75
2022/10/31 09:51:40;;;;;;;6.75;6.05;;;22.30;99.90;;;;;;5068950;28;20048;-75
2022/10/31 09:54:10;;;;;;;7.47;6.47;;;22.60;99.90;;;;;;5068863;28;20102;-75
2022/10/31 09:56:37;;;;;;;9.00;6.20;;;23.00;99.90;;;;;;5052151;28;20043;-76
2022/10/31 09:59:06;;;;;;;7.72;6.80;;;23.20;99.90;;;;;;5052698;28;20032;-76
2022/10/31 10:02:00;;;;;;;8.98;6.30;;;22.90;99.90;;;;;;5069189;28;20036;-76
2022/10/31 10:04:41;;;;;;;7.45;5.93;;;23.00;99.90;;;;;;5067985;28;20036;-76
2022/10/31 10:07:24;;;;;;;6.00;5.40;;;22.90;99.90;;;;;;5052501;28;20037;-76
2022/10/31 10:09:50;;;;;;;8.07;5.75;;;23.20;99.90;;;;;;5068583;28;20054;-76
2022/10/31 10:12:18;;;;;;;;;;;23.30;99.90;;;;;;5035841;28;20131;-77
2022/10/31 10:15:15;;;;;;;6.57;5.40;;;23.50;99.90;;;;;;5068534;28;20328;-77
2022/10/31 10:18:34;;;;;;;7.17;5.77;;;24.30;99.90;;;;;;5051701;28;20035;-77
2022/10/31 10:21:10;;;;;;;8.20;6.30;;;24.40;99.90;;;;;;4991941;28;20049;-77
2022/10/31 10:23:49;;;;;;;9.25;6.18;;;24.70;99.90;;;;;;4991832;28;20088;-77
2022/10/31 10:26:19;;;;;;;8.05;6.45;;;24.50;99.90;;;;;;5036146;28;20380;-77
2022/10/31 10:28:51;;;;;;;8.45;6.53;;;24.30;99.90;;;;;;5052204;28;20063;-77
2022/10/31 10:31:23;;;;;;;8.93;6.45;;;23.90;99.90;;;;;;5065567;28;20044;-77
2022/10/31 10:34:17;;;;;;;9.07;7.60;;;23.40;99.90;;;;;;5055442;28;20032;-75
2022/10/31 10:37:08;;;;;;;9.82;7.28;;;22.90;99.90;;;;;;5059665;28;20041;-76
2022/10/31 10:39:43;;;;;;;10.20;7.85;;;23.30;99.90;;;;;;5071070;28;20033;-76
2022/10/31 10:48:04;;;;;;;9.90;8.07;;;22.60;99.90;;;;;;5069881;28;20051;-76
2022/10/31 10:50:39;;;;;;;9.20;7.55;;;22.30;99.90;;;;;;5070621;28;20044;-75
2022/10/31 10:53:21;;;;;;;10.15;8.43;;;22.30;99.90;;;;;;5055854;28;20040;-75
2022/10/31 10:55:52;;;;;;;9.52;8.13;;;22.20;99.90;;;;;;5071529;28;20037;-75
2022/10/31 10:58:18;;;;;;;10.02;8.52;;;22.00;99.90;;;;;;5071802;28;20109;-75
2022/10/31 11:00:46;;;;;;;10.88;8.13;;;22.30;99.90;;;;;;5054958;28;20036;-75
2022/10/31 11:03:14;;;;;;;11.20;8.48;;;22.80;99.90;;;;;;5055786;28;20036;-75
2022/10/31 11:06:03;;;;;;;12.18;8.48;;;22.90;99.90;;;;;;5071974;28;20467;-75
2022/10/31 11:08:34;;;;;;;11.32;8.77;;;23.00;99.90;;;;;;5052595;28;20040;-75
2022/10/31 11:11:18;;;;;;;10.38;7.72;;;23.10;99.90;;;;;;5054495;28;20070;-76
2022/10/31 11:13:47;;;;;;;11.07;8.18;;;23.40;99.90;;;;;;5071172;28;20056;-75
2022/10/31 11:16:26;;;;;;;9.10;7.50;;;23.90;99.90;;;;;;5071664;28;20068;-75
2022/10/31 11:18:53;;;;;;;11.00;8.02;;;24.00;99.90;;;;;;5069805;28;20090;-75
2022/10/31 11:21:26;;;;;;;8.88;7.18;;;23.80;99.90;;;;;;5071786;28;20032;-75
2022/10/31 11:24:10;;;;;;;9.80;7.45;;;23.50;99.90;;;;;;5069479;28;20113;-75
2022/10/31 11:26:38;;;;;;;10.15;7.10;;;23.60;99.90;;;;;;5070487;28;20041;-75
2022/10/31 11:29:05;;;;;;;8.90;6.38;;;23.30;99.90;;;;;;5054645;28;20766;-75
2022/10/31 11:31:34;;;;;;;9.02;6.32;;;23.30;99.90;;;;;;5071440;28;20480;-75
2022/10/31 11:34:11;;;;;;;10.65;7.00;;;23.30;99.90;;;;;;5070803;28;20037;-75
2022/10/31 11:36:39;;;;;;;8.32;6.70;;;23.00;99.90;;;;;;5070258;28;20047;-75
2022/10/31 11:39:12;;;;;;;7.35;6.38;;;22.60;99.90;;;;;;5071171;28;20723;-75
2022/10/31 11:41:38;;;;;;;10.98;7.50;;;22.00;99.90;;;;;;5054306;28;20504;-75
2022/10/31 11:44:16;;;;;;;;;;;21.60;99.90;;;;;;5071396;28;20127;-75
2022/10/31 11:46:51;;;;;;;9.10;5.85;;;21.30;99.90;;;;;;5070896;28;19916;-75
2022/10/31 11:49:29;;;;;;;8.70;5.22;;;20.90;99.90;;;;;;5069571;28;20036;-75
2022/10/31 11:51:57;;;;;;;6.85;5.00;;;20.90;99.90;;;;;;5069206;28;20040;-75
2022/10/31 11:54:28;;;;;;;9.27;5.20;;;20.80;99.90;;;;;;5070999;28;20036;-75
2022/10/31 11:56:54;;;;;;;7.80;4.70;;;20.70;99.90;;;;;;5053477;28;20047;-75
2022/10/31 11:59:29;;;;;;;8.70;5.10;;;20.60;99.90;;;;;;5054366;28;20456;-76
2022/10/31 12:01:57;;;;;;;8.55;5.03;;;20.40;99.90;;;;;;5068473;28;20079;-75
2022/10/31 12:04:36;;;;;;;7.63;5.47;;;20.20;99.90;;;;;;5054170;28;20039;-75
2022/10/31 12:07:02;;;;;;;6.70;5.00;;;20.20;99.90;;;;;;5069055;28;20044;-75
2022/10/31 12:09:32;;;;;;;8.10;5.18;;;20.00;99.90;;;;;;5069797;28;20029;-75
2022/10/31 12:12:45;;;;;;;6.85;4.43;;;19.80;99.90;;;;;;5069833;28;20080;-75
2022/10/31 12:15:33;;;;;;;6.63;4.45;;;19.90;99.90;;;;;;5066231;28;20036;-75
2022/10/31 12:18:17;;;;;;;5.82;4.03;;;19.90;99.90;;;;;;5053162;28;20068;-75
2022/10/31 12:21:07;;;;;;;7.35;4.20;;;20.20;99.90;;;;;;5054134;28;20453;-75
2022/10/31 12:23:45;;;;;;;6.93;4.18;;;20.10;99.90;;;;;;5069883;28;20549;-75
2022/10/31 12:26:23;;;;;;;7.20;3.92;;;20.60;99.90;;;;;;5052735;28;20040;-75
2022/10/31 12:29:01;;;;;;;7.40;3.60;;;20.90;99.90;;;;;;5053487;28;20047;-75
2022/10/31 12:31:50;;;;;;;7.53;3.20;;;20.90;99.90;;;;;;5069094;28;20047;-74
2022/10/31 12:34:34;;;;;;;6.43;3.30;;;20.80;99.90;;;;;;5053161;28;20044;-74
2022/10/31 12:37:15;;;;;;;6.68;3.58;;;20.60;99.90;;;;;;5067969;28;20041;-74
2022/10/31 12:39:41;;;;;;;8.23;3.63;;;20.30;99.90;;;;;;5052031;28;20420;-74
2022/10/31 12:42:13;;;;;;;6.82;3.50;;;20.20;99.90;;;;;;5069972;28;20036;-75
2022/10/31 12:45:06;;;;;;;6.90;3.20;;;19.50;99.90;;;;;;5069885;28;20361;-74
2022/10/31 12:47:55;;;;;;;4.72;2.95;;;19.30;99.90;;;;;;5069911;28;20048;-74
2022/10/31 12:50:48;;;;;;;8.57;3.30;;;18.90;99.90;;;;;;5069755;28;20043;-75
2022/10/31 12:53:32;;;;;;;7.80;3.22;;;18.70;99.90;;;;;;5052269;28;20028;-75
2022/10/31 12:56:06;;;;;;;6.47;2.92;;;18.60;99.90;;;;;;5052632;28;20047;-75
2022/10/31 12:58:43;;;;;;;6.55;2.97;;;18.70;99.90;;;;;;5051144;28;20039;-75
2022/10/31 13:01:12;;;;;;;;;;;18.70;99.90;;;;;;5053279;28;20506;-75